Time,TemperatureF,DewpointF,PressureIn,WindDirection,WindDirectionDegrees,WindSpeedMPH,WindSpeedGustMPH,Humidity,HourlyPrecipIn,Conditions,Clouds,dailyrainin,SoftwareType,DateUTC
2013-03-25 00:03:00,35.0,20.0,30.25,North,349,3.0,8.0,53,0.00,,,0.00,,2013-03-25 05:03:00,
2013-03-25 00:12:00,35.0,20.0,30.25,North,349,3.0,8.0,53,0.00,,,0.00,,2013-03-25 05:12:00,
2013-03-25 00:22:00,35.0,20.0,30.26,North,360,4.0,8.0,53,0.00,,,0.00,,2013-03-25 05:22:00,
2013-03-25 00:32:00,35.0,20.0,30.26,NNW,340,5.0,8.0,54,0.00,,,0.00,,2013-03-25 05:32:00,
2013-03-25 00:42:00,35.0,20.0,30.26,NNW,340,5.0,8.0,54,0.00,,,0.00,,2013-03-25 05:42:00,
2013-03-25 00:52:00,34.0,20.0,30.26,North,359,4.0,7.0,55,0.00,,,0.00,,2013-03-25 05:52:00,
2013-03-25 01:02:00,34.0,20.0,30.27,North,8,4.0,7.0,55,0.00,,,0.00,,2013-03-25 06:02:00,
2013-03-25 01:12:00,34.0,20.0,30.27,North,8,4.0,7.0,55,0.00,,,0.00,,2013-03-25 06:12:00,
2013-03-25 01:22:00,34.0,20.0,30.27,NW,314,4.0,10.0,56,0.00,,,0.00,,2013-03-25 06:22:00,
2013-03-25 01:32:00,34.0,20.0,30.27,NNE,13,3.0,9.0,57,0.00,,,0.00,,2013-03-25 06:32:00,
2013-03-25 01:42:00,34.0,20.0,30.27,NNE,13,3.0,9.0,57,0.00,,,0.00,,2013-03-25 06:42:00,
2013-03-25 01:52:00,34.0,20.0,30.28,North,353,4.0,9.0,57,0.00,,,0.00,,2013-03-25 06:52:00,
2013-03-25 02:02:00,33.0,20.0,30.29,NW,315,2.0,5.0,58,0.00,,,0.00,,2013-03-25 07:02:00,
2013-03-25 02:12:00,33.0,20.0,30.29,NW,315,2.0,5.0,58,0.00,,,0.00,,2013-03-25 07:12:00,
2013-03-25 02:22:00,33.0,20.0,30.29,North,360,2.0,5.0,58,0.00,,,0.00,,2013-03-25 07:22:00,
2013-03-25 02:32:00,32.0,20.0,30.30,NW,304,0.0,3.0,60,0.00,,,0.00,,2013-03-25 07:32:00,
2013-03-25 02:42:00,32.0,20.0,30.30,NW,304,0.0,3.0,60,0.00,,,0.00,,2013-03-25 07:42:00,
2013-03-25 02:52:00,32.0,20.0,30.31,NW,307,0.0,3.0,60,0.00,,,0.00,,2013-03-25 07:52:00,
2013-03-25 03:02:00,31.0,20.0,30.31,NW,312,0.0,1.0,62,0.00,,,0.00,,2013-03-25 08:02:00,
2013-03-25 03:12:00,31.0,20.0,30.31,NW,312,0.0,1.0,62,0.00,,,0.00,,2013-03-25 08:12:00,
2013-03-25 03:22:00,30.0,20.0,30.31,NW,308,0.0,0.0,65,0.00,,,0.00,,2013-03-25 08:22:00,
2013-03-25 03:32:00,29.0,20.0,30.32,NW,308,0.0,0.0,68,0.00,,,0.00,,2013-03-25 08:32:00,
2013-03-25 03:43:00,29.0,20.0,30.32,NW,308,0.0,0.0,68,0.00,,,0.00,,2013-03-25 08:43:00,
2013-03-25 03:52:00,28.0,20.0,30.32,NW,308,0.0,0.0,71,0.00,,,0.00,,2013-03-25 08:52:00,
2013-03-25 04:02:00,28.0,20.0,30.32,WNW,301,0.0,0.0,72,0.00,,,0.00,,2013-03-25 09:02:00,
2013-03-25 04:12:00,28.0,20.0,30.32,WNW,301,0.0,0.0,72,0.00,,,0.00,,2013-03-25 09:12:00,
2013-03-25 04:22:00,27.0,20.0,30.31,WNW,301,0.0,0.0,74,0.00,,,0.00,,2013-03-25 09:22:00,
2013-03-25 04:33:00,27.0,20.0,30.30,WNW,301,0.0,0.0,76,0.00,,,0.00,,2013-03-25 09:33:00,
2013-03-25 04:43:00,27.0,20.0,30.30,WNW,301,0.0,0.0,76,0.00,,,0.00,,2013-03-25 09:43:00,
2013-03-25 04:52:00,28.0,21.0,30.30,WNW,299,0.0,1.0,74,0.00,,,0.00,,2013-03-25 09:52:00,
2013-03-25 05:03:00,27.0,20.0,30.30,WNW,300,0.0,2.0,74,0.00,,,0.00,,2013-03-25 10:03:00,
2013-03-25 05:12:00,27.0,20.0,30.30,WNW,300,0.0,2.0,74,0.00,,,0.00,,2013-03-25 10:12:00,
2013-03-25 05:22:00,28.0,20.0,30.30,WNW,302,0.0,2.0,72,0.00,,,0.00,,2013-03-25 10:22:00,
2013-03-25 05:32:00,28.0,20.0,30.30,WNW,302,1.0,3.0,72,0.00,,,0.00,,2013-03-25 10:32:00,
2013-03-25 05:42:00,28.0,20.0,30.30,WNW,302,1.0,3.0,72,0.00,,,0.00,,2013-03-25 10:42:00,
2013-03-25 05:53:00,28.0,20.0,30.31,West,274,1.0,3.0,71,0.00,,,0.00,,2013-03-25 10:53:00,
2013-03-25 06:03:00,28.0,20.0,30.32,West,272,0.0,1.0,72,0.00,,,0.00,,2013-03-25 11:03:00,
2013-03-25 06:12:00,28.0,20.0,30.32,West,272,0.0,1.0,72,0.00,,,0.00,,2013-03-25 11:12:00,
2013-03-25 06:23:00,27.0,20.0,30.32,West,271,0.0,1.0,73,0.00,,,0.00,,2013-03-25 11:23:00,
2013-03-25 06:32:00,27.0,20.0,30.33,West,274,0.0,1.0,75,0.00,,,0.00,,2013-03-25 11:32:00,
2013-03-25 06:42:00,27.0,20.0,30.33,West,274,0.0,1.0,75,0.00,,,0.00,,2013-03-25 11:42:00,
2013-03-25 06:52:00,26.0,19.0,30.34,West,264,0.0,0.0,76,0.00,,,0.00,,2013-03-25 11:52:00,
2013-03-25 07:02:00,26.0,20.0,30.34,West,264,0.0,0.0,77,0.00,,,0.00,,2013-03-25 12:02:00,
2013-03-25 07:13:00,26.0,20.0,30.34,West,264,0.0,0.0,77,0.00,,,0.00,,2013-03-25 12:13:00,
2013-03-25 07:23:00,26.0,20.0,30.35,West,264,0.0,1.0,77,0.00,,,0.00,,2013-03-25 12:23:00,
2013-03-25 07:32:00,27.0,21.0,30.35,WNW,295,0.0,2.0,77,0.00,,,0.00,,2013-03-25 12:32:00,
2013-03-25 07:42:00,27.0,21.0,30.35,WNW,295,0.0,2.0,77,0.00,,,0.00,,2013-03-25 12:42:00,
2013-03-25 07:52:00,28.0,21.0,30.35,NW,309,2.0,4.0,75,0.00,,,0.00,,2013-03-25 12:52:00,
2013-03-25 08:02:00,29.0,21.0,30.36,WNW,291,2.0,5.0,73,0.00,,,0.00,,2013-03-25 13:02:00,
2013-03-25 08:13:00,29.0,21.0,30.36,WNW,291,2.0,5.0,73,0.00,,,0.00,,2013-03-25 13:13:00,
2013-03-25 08:22:00,31.0,22.0,30.37,WNW,297,3.0,4.0,70,0.00,,,0.00,,2013-03-25 13:22:00,
2013-03-25 08:32:00,32.0,23.0,30.38,West,271,2.0,6.0,68,0.00,,,0.00,,2013-03-25 13:32:00,
2013-03-25 08:42:00,32.0,23.0,30.38,West,271,2.0,6.0,68,0.00,,,0.00,,2013-03-25 13:42:00,
2013-03-25 08:52:00,33.0,23.0,30.39,West,269,0.0,6.0,67,0.00,,,0.00,,2013-03-25 13:52:00,
2013-03-25 09:03:00,34.0,24.0,30.40,NW,322,2.0,5.0,66,0.00,,,0.00,,2013-03-25 14:03:00,
2013-03-25 09:12:00,34.0,24.0,30.40,NW,322,2.0,5.0,66,0.00,,,0.00,,2013-03-25 14:12:00,
2013-03-25 09:22:00,35.0,23.0,30.40,NNW,331,6.0,12.0,62,0.00,,,0.00,,2013-03-25 14:22:00,
2013-03-25 09:32:00,35.0,23.0,30.40,NNW,331,6.0,12.0,62,0.00,,,0.00,,2013-03-25 14:32:00,
2013-03-25 09:42:00,35.0,23.0,30.40,NNW,331,6.0,12.0,62,0.00,,,0.00,,2013-03-25 14:42:00,
2013-03-25 09:52:00,36.0,21.0,30.42,NW,307,5.0,11.0,55,0.00,,,0.00,,2013-03-25 14:52:00,
2013-03-25 10:02:00,37.0,21.0,30.42,WNW,294,4.0,12.0,52,0.00,,,0.00,,2013-03-25 15:02:00,
2013-03-25 10:13:00,37.0,21.0,30.42,WNW,294,4.0,12.0,52,0.00,,,0.00,,2013-03-25 15:13:00,
2013-03-25 10:22:00,38.0,21.0,30.42,WNW,289,3.0,11.0,50,0.00,,,0.00,,2013-03-25 15:22:00,
2013-03-25 10:33:00,39.0,19.0,30.43,SSW,208,4.0,12.0,45,0.00,,,0.00,,2013-03-25 15:33:00,
2013-03-25 10:42:00,39.0,19.0,30.43,SSW,208,4.0,12.0,45,0.00,,,0.00,,2013-03-25 15:42:00,
2013-03-25 10:53:00,39.0,18.0,30.44,NNW,328,5.0,12.0,42,0.00,,,0.00,,2013-03-25 15:53:00,
2013-03-25 11:03:00,41.0,19.0,30.44,NNE,25,4.0,9.0,40,0.00,,,0.00,,2013-03-25 16:03:00,
2013-03-25 11:12:00,41.0,19.0,30.44,NNE,25,4.0,9.0,40,0.00,,,0.00,,2013-03-25 16:12:00,
2013-03-25 11:23:00,41.0,19.0,30.44,NNE,25,4.0,9.0,40,0.00,,,0.00,,2013-03-25 16:23:00,
2013-03-25 11:33:00,42.0,16.0,30.44,North,6,8.0,16.0,34,0.00,,,0.00,,2013-03-25 16:33:00,
2013-03-25 11:43:00,42.0,16.0,30.44,North,6,8.0,16.0,34,0.00,,,0.00,,2013-03-25 16:43:00,
2013-03-25 11:53:00,43.0,15.0,30.44,NNW,333,7.0,13.0,32,0.00,,,0.00,,2013-03-25 16:53:00,
2013-03-25 12:02:00,43.0,14.0,30.44,WNW,300,8.0,21.0,30,0.00,,,0.00,,2013-03-25 17:02:00,
2013-03-25 12:12:00,43.0,14.0,30.44,WNW,300,8.0,21.0,30,0.00,,,0.00,,2013-03-25 17:12:00,
2013-03-25 12:23:00,43.0,15.0,30.45,North,360,7.0,17.0,32,0.00,,,0.00,,2013-03-25 17:23:00,
2013-03-25 12:33:00,43.0,15.0,30.44,NW,307,6.0,17.0,32,0.00,,,0.00,,2013-03-25 17:33:00,
2013-03-25 12:42:00,43.0,15.0,30.44,NW,307,6.0,17.0,32,0.00,,,0.00,,2013-03-25 17:42:00,
2013-03-25 12:52:00,45.0,16.0,30.44,NNE,12,5.0,14.0,31,0.00,,,0.00,,2013-03-25 17:52:00,
2013-03-25 13:03:00,45.0,16.0,30.43,NW,304,7.0,15.0,31,0.00,,,0.00,,2013-03-25 18:03:00,
2013-03-25 13:12:00,45.0,16.0,30.43,NW,304,7.0,15.0,31,0.00,,,0.00,,2013-03-25 18:12:00,
2013-03-25 13:22:00,45.0,15.0,30.42,West,262,5.0,14.0,30,0.00,,,0.00,,2013-03-25 18:22:00,
2013-03-25 13:33:00,45.0,17.0,30.42,WNW,301,7.0,17.0,32,0.00,,,0.00,,2013-03-25 18:33:00,
2013-03-25 13:42:00,45.0,17.0,30.42,WNW,301,7.0,17.0,32,0.00,,,0.00,,2013-03-25 18:42:00,
2013-03-25 13:52:00,46.0,16.0,30.42,North,350,7.0,15.0,29,0.00,,,0.00,,2013-03-25 18:52:00,
2013-03-25 14:03:00,46.0,15.0,30.41,West,267,5.0,11.0,28,0.00,,,0.00,,2013-03-25 19:03:00,
2013-03-25 14:12:00,46.0,15.0,30.41,West,267,5.0,11.0,28,0.00,,,0.00,,2013-03-25 19:12:00,
2013-03-25 14:23:00,46.0,16.0,30.40,WNW,287,5.0,13.0,29,0.00,,,0.00,,2013-03-25 19:23:00,
2013-03-25 14:33:00,46.0,16.0,30.40,WNW,302,5.0,14.0,29,0.00,,,0.00,,2013-03-25 19:33:00,
2013-03-25 14:42:00,46.0,16.0,30.40,WNW,302,5.0,14.0,29,0.00,,,0.00,,2013-03-25 19:42:00,
2013-03-25 14:52:00,47.0,16.0,30.39,West,281,5.0,15.0,29,0.00,,,0.00,,2013-03-25 19:52:00,
2013-03-25 15:02:00,47.0,16.0,30.39,WNW,288,8.0,18.0,29,0.00,,,0.00,,2013-03-25 20:02:00,
2013-03-25 15:12:00,47.0,16.0,30.39,WNW,288,8.0,18.0,29,0.00,,,0.00,,2013-03-25 20:12:00,
2013-03-25 15:22:00,48.0,16.0,30.38,West,274,6.0,14.0,28,0.00,,,0.00,,2013-03-25 20:22:00,
2013-03-25 15:32:00,49.0,17.0,30.38,NW,322,5.0,16.0,28,0.00,,,0.00,,2013-03-25 20:32:00,
2013-03-25 15:42:00,49.0,17.0,30.38,NW,322,5.0,16.0,28,0.00,,,0.00,,2013-03-25 20:42:00,
2013-03-25 15:52:00,48.0,16.0,30.37,WNW,299,6.0,16.0,28,0.00,,,0.00,,2013-03-25 20:52:00,
2013-03-25 16:02:00,49.0,17.0,30.38,NW,325,6.0,13.0,28,0.00,,,0.00,,2013-03-25 21:02:00,
2013-03-25 16:12:00,49.0,17.0,30.38,NW,325,6.0,13.0,28,0.00,,,0.00,,2013-03-25 21:12:00,
2013-03-25 16:22:00,49.0,17.0,30.37,WNW,300,7.0,13.0,28,0.00,,,0.00,,2013-03-25 21:22:00,
2013-03-25 16:33:00,49.0,16.0,30.37,WNW,292,5.0,14.0,26,0.00,,,0.00,,2013-03-25 21:33:00,
2013-03-25 16:42:00,49.0,16.0,30.37,WNW,292,5.0,14.0,26,0.00,,,0.00,,2013-03-25 21:42:00,
2013-03-25 16:52:00,48.0,16.0,30.37,North,1,6.0,15.0,27,0.00,,,0.00,,2013-03-25 21:52:00,
2013-03-25 17:03:00,48.0,16.0,30.37,North,1,6.0,15.0,27,0.00,,,0.00,,2013-03-25 22:03:00,
2013-03-25 17:12:00,48.0,16.0,30.37,North,1,6.0,15.0,27,0.00,,,0.00,,2013-03-25 22:12:00,
2013-03-25 17:23:00,48.0,16.0,30.37,WNW,297,6.0,17.0,27,0.00,,,0.00,,2013-03-25 22:23:00,
2013-03-25 17:33:00,48.0,16.0,30.37,NE,42,8.0,15.0,28,0.00,,,0.00,,2013-03-25 22:33:00,
2013-03-25 17:42:00,48.0,16.0,30.37,NE,42,8.0,15.0,28,0.00,,,0.00,,2013-03-25 22:42:00,
2013-03-25 17:52:00,47.0,16.0,30.37,NW,314,6.0,17.0,28,0.00,,,0.00,,2013-03-25 22:52:00,
2013-03-25 18:03:00,47.0,16.0,30.36,North,354,6.0,20.0,29,0.00,,,0.00,,2013-03-25 23:03:00,
2013-03-25 18:12:00,47.0,16.0,30.36,North,354,6.0,20.0,29,0.00,,,0.00,,2013-03-25 23:12:00,
2013-03-25 18:23:00,47.0,16.0,30.37,NNW,343,5.0,14.0,29,0.00,,,0.00,,2013-03-25 23:23:00,
2013-03-25 18:32:00,47.0,16.0,30.37,NNW,343,5.0,14.0,29,0.00,,,0.00,,2013-03-25 23:32:00,
2013-03-25 18:42:00,47.0,16.0,30.37,NNW,343,5.0,14.0,29,0.00,,,0.00,,2013-03-25 23:42:00,
2013-03-25 18:52:00,47.0,16.0,30.37,West,265,7.0,16.0,28,0.00,,,0.00,,2013-03-25 23:52:00,
2013-03-25 19:02:00,46.0,16.0,30.37,WNW,292,6.0,19.0,29,0.00,,,0.00,,2013-03-26 00:02:00,
2013-03-25 19:12:00,46.0,16.0,30.37,WNW,292,6.0,19.0,29,0.00,,,0.00,,2013-03-26 00:12:00,
2013-03-25 19:22:00,46.0,16.0,30.38,East,97,4.0,13.0,30,0.00,,,0.00,,2013-03-26 00:22:00,
2013-03-25 19:32:00,45.0,16.0,30.39,NW,304,4.0,11.0,31,0.00,,,0.00,,2013-03-26 00:32:00,
2013-03-25 19:42:00,45.0,16.0,30.39,NW,304,4.0,11.0,31,0.00,,,0.00,,2013-03-26 00:42:00,
2013-03-25 19:52:00,44.0,16.0,30.40,NW,316,3.0,13.0,32,0.00,,,0.00,,2013-03-26 00:52:00,
2013-03-25 20:02:00,43.0,16.0,30.40,NW,309,3.0,7.0,33,0.00,,,0.00,,2013-03-26 01:02:00,
2013-03-25 20:12:00,43.0,16.0,30.40,NW,309,3.0,7.0,33,0.00,,,0.00,,2013-03-26 01:12:00,
2013-03-25 20:22:00,43.0,16.0,30.41,NW,304,4.0,8.0,33,0.00,,,0.00,,2013-03-26 01:22:00,
2013-03-25 20:32:00,42.0,16.0,30.42,NNW,332,2.0,8.0,34,0.00,,,0.00,,2013-03-26 01:32:00,
2013-03-25 20:42:00,42.0,16.0,30.42,NNW,332,2.0,8.0,34,0.00,,,0.00,,2013-03-26 01:42:00,
2013-03-25 20:52:00,41.0,16.0,30.42,North,352,2.0,6.0,36,0.00,,,0.00,,2013-03-26 01:52:00,
2013-03-25 21:02:00,41.0,17.0,30.43,NNW,336,1.0,4.0,37,0.00,,,0.00,,2013-03-26 02:02:00,
2013-03-25 21:12:00,41.0,17.0,30.43,NNW,336,1.0,4.0,37,0.00,,,0.00,,2013-03-26 02:12:00,
2013-03-25 21:22:00,40.0,16.0,30.43,NW,311,1.0,4.0,38,0.00,,,0.00,,2013-03-26 02:22:00,
2013-03-25 21:32:00,39.0,16.0,30.43,NNW,348,1.0,3.0,39,0.00,,,0.00,,2013-03-26 02:32:00,
2013-03-25 21:42:00,39.0,16.0,30.43,NNW,348,1.0,3.0,39,0.00,,,0.00,,2013-03-26 02:42:00,
2013-03-25 21:52:00,38.0,16.0,30.44,NNW,340,0.0,2.0,40,0.00,,,0.00,,2013-03-26 02:52:00,
2013-03-25 22:02:00,37.0,17.0,30.44,NNW,345,0.0,1.0,43,0.00,,,0.00,,2013-03-26 03:02:00,
2013-03-25 22:12:00,37.0,17.0,30.44,NNW,345,0.0,1.0,43,0.00,,,0.00,,2013-03-26 03:12:00,
2013-03-25 22:22:00,37.0,17.0,30.45,NNW,338,0.0,2.0,44,0.00,,,0.00,,2013-03-26 03:22:00,
2013-03-25 22:33:00,36.0,17.0,30.45,NNW,337,0.0,1.0,45,0.00,,,0.00,,2013-03-26 03:33:00,
2013-03-25 22:42:00,36.0,17.0,30.45,NNW,337,0.0,1.0,45,0.00,,,0.00,,2013-03-26 03:42:00,
2013-03-25 22:52:00,36.0,17.0,30.45,NNW,336,0.0,1.0,46,0.00,,,0.00,,2013-03-26 03:52:00,
2013-03-25 23:03:00,35.0,18.0,30.45,NNW,336,0.0,0.0,50,0.00,,,0.00,,2013-03-26 04:03:00,
2013-03-25 23:12:00,35.0,18.0,30.45,NNW,336,0.0,0.0,50,0.00,,,0.00,,2013-03-26 04:12:00,
2013-03-25 23:23:00,32.0,18.0,30.46,NNW,336,0.0,0.0,55,0.00,,,0.00,,2013-03-26 04:23:00,
2013-03-25 23:32:00,31.0,18.0,30.46,NNW,336,0.0,0.0,58,0.00,,,0.00,,2013-03-26 04:32:00,
2013-03-25 23:43:00,31.0,18.0,30.46,NNW,336,0.0,0.0,58,0.00,,,0.00,,2013-03-26 04:43:00,
2013-03-25 23:52:00,31.0,20.0,30.46,NNW,336,0.0,0.0,63,0.00,,,0.00,,2013-03-26 04:52:00,